createdAt,value
2022-10-01T00:01:37.936Z,20.05
2022-10-01T00:04:07.911Z,22.75
2022-10-01T00:06:37.952Z,22.63
2022-10-01T00:09:07.633Z,23.52
2022-10-01T00:11:38.760Z,23.38
2022-10-01T00:14:08.811Z,24.00
2022-10-01T00:16:38.733Z,23.45
2022-10-01T00:19:08.381Z,23.73
2022-10-01T00:21:38.361Z,23.45
2022-10-01T00:24:08.520Z,25.17
2022-10-01T00:26:39.822Z,25.70
2022-10-01T00:31:43.069Z,23.98
2022-10-01T00:34:16.133Z,26.73
2022-10-01T00:36:45.921Z,27.38
2022-10-01T00:39:16.200Z,26.23
2022-10-01T00:41:48.342Z,25.08
2022-10-01T00:44:34.301Z,24.52
2022-10-01T00:47:10.773Z,24.65
2022-10-01T00:49:42.342Z,23.73
2022-10-01T00:52:17.562Z,24.58
2022-10-01T00:54:52.162Z,22.75
2022-10-01T00:57:25.970Z,21.25
2022-10-01T01:00:00.352Z,20.88
2022-10-01T01:02:30.182Z,24.13
2022-10-01T01:05:00.721Z,20.77
2022-10-01T01:07:33.121Z,20.45
2022-10-01T01:10:04.271Z,20.60
2022-10-01T01:12:48.991Z,21.40
2022-10-01T01:15:25.892Z,21.17
2022-10-01T01:18:04.272Z,20.13
2022-10-01T01:21:08.161Z,20.92
2022-10-01T01:24:12.542Z,20.23
2022-10-01T01:27:00.791Z,20.02
2022-10-01T01:29:40.250Z,19.90
2022-10-01T01:32:15.139Z,21.75
2022-10-01T01:34:50.520Z,19.30
2022-10-01T01:37:25.020Z,19.13
2022-10-01T01:39:58.572Z,21.05
2022-10-01T01:42:31.720Z,19.08
2022-10-01T01:45:06.480Z,20.70
2022-10-01T01:47:38.510Z,20.50
2022-10-01T01:50:09.171Z,20.75
2022-10-01T01:52:39.669Z,21.63
2022-10-01T01:55:10.911Z,20.20
2022-10-01T02:00:14.733Z,18.90
2022-10-01T02:02:50.511Z,21.42
2022-10-01T02:05:23.920Z,19.63
2022-10-01T02:08:26.807Z,20.17
2022-10-01T02:11:16.598Z,18.67
2022-10-01T02:13:57.222Z,19.48
2022-10-01T02:16:39.142Z,17.88
2022-10-01T02:19:20.101Z,18.83
2022-10-01T02:22:00.032Z,18.60
2022-10-01T02:24:39.511Z,19.55
2022-10-01T02:27:15.091Z,20.58
2022-10-01T02:29:46.860Z,19.83
2022-10-01T02:32:19.889Z,18.25
2022-10-01T02:34:52.259Z,18.80
2022-10-01T02:37:27.162Z,20.25
2022-10-01T02:39:58.974Z,19.58
2022-10-01T02:42:32.172Z,17.27
2022-10-01T02:45:05.025Z,16.58
2022-10-01T02:47:38.969Z,17.25
2022-10-01T02:50:10.973Z,18.38
2022-10-01T02:52:47.319Z,18.70
2022-10-01T02:55:22.584Z,17.90
2022-10-01T02:57:51.859Z,18.90
2022-10-01T03:00:22.684Z,19.50
2022-10-01T03:02:54.193Z,17.80
2022-10-01T03:05:24.323Z,17.38
2022-10-01T03:07:54.101Z,19.02
2022-10-01T03:10:23.884Z,17.10
2022-10-01T03:12:53.892Z,17.27
2022-10-01T03:15:23.783Z,18.02
2022-10-01T03:17:55.921Z,17.45
2022-10-01T03:20:26.797Z,19.38
2022-10-01T03:22:56.577Z,18.55
2022-10-01T03:25:26.297Z,18.70
2022-10-01T03:27:56.618Z,18.23
2022-10-01T03:30:27.179Z,17.10
2022-10-01T03:32:58.625Z,19.40
2022-10-01T03:35:28.346Z,18.17
2022-10-01T03:37:58.794Z,18.65
2022-10-01T03:40:29.093Z,18.48
2022-10-01T03:42:59.109Z,18.83
2022-10-01T03:45:28.769Z,19.60
2022-10-01T03:47:59.895Z,20.75
2022-10-01T03:50:29.952Z,19.33
2022-10-01T03:53:00.414Z,20.15
2022-10-01T03:55:30.263Z,19.45
2022-10-01T03:58:00.183Z,20.20
2022-10-01T04:00:29.964Z,18.40
2022-10-01T04:03:01.118Z,16.65
2022-10-01T04:08:01.243Z,19.33
2022-10-01T04:10:31.438Z,18.98
2022-10-01T04:13:01.642Z,19.25
2022-10-01T04:15:33.115Z,20.00
2022-10-01T04:18:06.492Z,19.10
2022-10-01T04:20:37.663Z,18.92
2022-10-01T04:23:08.094Z,19.90
2022-10-01T04:25:38.143Z,18.52
2022-10-01T04:28:11.608Z,20.20
2022-10-01T04:30:43.756Z,17.95
2022-10-01T04:33:17.632Z,18.50
2022-10-01T04:35:48.043Z,19.00
2022-10-01T04:38:18.933Z,20.63
2022-10-01T04:40:49.252Z,18.17
2022-10-01T04:43:19.266Z,19.10
2022-10-01T04:45:49.233Z,20.85
2022-10-01T04:48:21.527Z,20.85
2022-10-01T04:50:51.473Z,17.70
2022-10-01T04:53:21.694Z,18.95
2022-10-01T04:55:51.672Z,20.23
2022-10-01T04:58:21.885Z,19.10
2022-10-01T05:00:52.239Z,20.13
2022-10-01T05:03:23.763Z,19.08
2022-10-01T05:05:54.172Z,19.67
2022-10-01T05:08:24.083Z,19.77
2022-10-01T05:10:54.654Z,17.02
2022-10-01T05:13:30.548Z,19.25
2022-10-01T05:16:01.449Z,20.55
2022-10-01T05:18:33.233Z,17.80
2022-10-01T05:21:08.224Z,17.15
2022-10-01T05:23:38.486Z,18.60
2022-10-01T05:26:08.924Z,19.15
2022-10-01T05:28:44.761Z,20.33
2022-10-01T05:31:16.373Z,18.92
2022-10-01T05:33:48.169Z,20.58
2022-10-01T05:36:18.263Z,20.88
2022-10-01T05:38:51.482Z,19.88
2022-10-01T05:41:21.513Z,20.90
2022-10-01T05:43:51.782Z,22.70
2022-10-01T05:46:22.667Z,21.88
2022-10-01T05:48:54.853Z,24.05
2022-10-01T05:51:24.992Z,24.52
2022-10-01T05:53:56.583Z,24.02
2022-10-01T05:56:26.578Z,25.00
2022-10-01T05:58:57.934Z,26.05
2022-10-01T06:01:28.352Z,26.92
2022-10-01T06:04:00.588Z,27.75
2022-10-01T06:06:31.512Z,26.48
2022-10-01T06:09:02.396Z,26.85
2022-10-01T06:11:32.915Z,27.30
2022-10-01T06:14:03.473Z,28.47
2022-10-01T06:16:33.432Z,28.70
2022-10-01T06:19:05.084Z,28.70
2022-10-01T06:21:36.063Z,28.20
2022-10-01T06:24:06.553Z,26.20
2022-10-01T06:26:37.884Z,27.53
2022-10-01T06:29:07.903Z,32.58
2022-10-01T06:31:38.756Z,32.55
2022-10-01T06:34:10.441Z,32.50
2022-10-01T06:36:40.802Z,32.35
2022-10-01T06:39:11.425Z,32.42
2022-10-01T06:41:43.802Z,31.80
2022-10-01T06:44:19.743Z,31.95
2022-10-01T06:46:50.646Z,29.58
2022-10-01T06:49:23.051Z,28.80
2022-10-01T06:52:10.353Z,28.38
2022-10-01T06:54:40.782Z,28.75
2022-10-01T06:57:11.732Z,25.70
2022-10-01T06:59:41.783Z,25.20
2022-10-01T07:02:21.775Z,26.67
2022-10-01T07:04:53.239Z,24.10
2022-10-01T07:07:27.027Z,24.98
2022-10-01T07:10:00.633Z,22.13
2022-10-01T07:15:01.099Z,21.20
2022-10-01T07:17:31.625Z,19.63
2022-10-01T07:20:03.474Z,19.95
2022-10-01T07:22:33.612Z,18.73
2022-10-01T07:25:03.741Z,18.08
2022-10-01T07:27:34.202Z,17.07
2022-10-01T07:30:04.973Z,17.77
2022-10-01T07:32:36.703Z,17.15
2022-10-01T07:35:09.423Z,16.48
2022-10-01T07:37:39.622Z,16.98
2022-10-01T07:40:10.302Z,17.65
2022-10-01T07:42:41.372Z,15.32
2022-10-01T07:45:12.663Z,14.23
2022-10-01T07:47:43.073Z,16.17
2022-10-01T07:50:16.287Z,14.30
2022-10-01T07:52:46.511Z,13.05
2022-10-01T07:55:16.641Z,14.65
2022-10-01T07:57:51.201Z,14.30
2022-10-01T08:00:21.848Z,13.02
2022-10-01T08:02:53.961Z,14.35
2022-10-01T08:05:27.421Z,15.07
2022-10-01T08:08:01.503Z,15.77
2022-10-01T08:10:34.514Z,16.20
2022-10-01T08:13:09.061Z,15.57
2022-10-01T08:15:39.059Z,16.13
2022-10-01T08:18:10.253Z,15.00
2022-10-01T08:20:42.396Z,14.75
2022-10-01T08:23:15.705Z,13.57
2022-10-01T08:25:48.211Z,12.75
2022-10-01T08:28:18.974Z,13.10
2022-10-01T08:30:49.133Z,11.35
2022-10-01T08:33:19.554Z,12.45
2022-10-01T08:35:51.234Z,12.20
2022-10-01T08:38:23.069Z,12.93
2022-10-01T08:40:54.454Z,15.15
2022-10-01T08:43:33.460Z,15.65
2022-10-01T08:46:07.017Z,13.93
2022-10-01T08:48:56.033Z,16.02
2022-10-01T08:51:34.791Z,15.95
2022-10-01T08:54:16.534Z,15.07
2022-10-01T08:59:34.244Z,12.73
2022-10-01T09:02:04.393Z,12.32
2022-10-01T09:04:34.881Z,12.45
2022-10-01T09:07:18.811Z,11.68
2022-10-01T09:09:57.822Z,12.07
2022-10-01T09:12:42.082Z,12.43
2022-10-01T09:15:23.652Z,12.80
2022-10-01T09:18:16.172Z,11.85
2022-10-01T09:20:52.533Z,11.57
2022-10-01T09:23:30.493Z,10.52
2022-10-01T09:26:01.724Z,11.25
2022-10-01T09:28:33.632Z,12.02
2022-10-01T09:31:13.154Z,12.05
2022-10-01T09:33:45.173Z,12.05
2022-10-01T09:36:25.611Z,11.20
2022-10-01T09:39:10.575Z,12.70
2022-10-01T09:41:41.053Z,11.80
2022-10-01T09:44:19.200Z,11.38
2022-10-01T09:46:50.183Z,12.40
2022-10-01T09:49:31.962Z,11.63
2022-10-01T09:52:06.511Z,11.35
2022-10-01T09:54:43.444Z,10.35
2022-10-01T09:57:19.025Z,10.93
2022-10-01T09:59:57.094Z,11.55
2022-10-01T10:02:33.115Z,10.77
2022-10-01T10:05:03.653Z,12.20
2022-10-01T10:07:35.293Z,11.27
2022-10-01T10:10:25.307Z,11.88
2022-10-01T10:13:02.431Z,10.73
2022-10-01T10:15:33.512Z,10.35
2022-10-01T10:18:10.825Z,10.60
2022-10-01T10:20:43.133Z,10.27
2022-10-01T10:23:18.568Z,10.73
2022-10-01T10:26:01.141Z,9.68
2022-10-01T10:28:43.872Z,9.55
2022-10-01T10:31:18.571Z,11.20
2022-10-01T10:33:52.863Z,9.32
2022-10-01T10:36:31.762Z,9.77
2022-10-01T10:39:05.122Z,9.65
2022-10-01T10:41:37.496Z,11.23
2022-10-01T10:44:09.911Z,10.55
2022-10-01T10:46:45.913Z,11.05
2022-10-01T10:49:22.653Z,9.70
2022-10-01T10:51:55.081Z,10.48
2022-10-01T10:54:31.792Z,10.25
2022-10-01T10:57:06.384Z,10.82
2022-10-01T10:59:36.764Z,10.55
2022-10-01T11:02:18.781Z,9.43
2022-10-01T11:04:51.034Z,10.57
2022-10-01T11:07:24.160Z,10.15
2022-10-01T11:10:09.084Z,10.25
2022-10-01T11:12:56.923Z,10.35
2022-10-01T11:15:46.640Z,9.93
2022-10-01T11:18:38.572Z,10.20
2022-10-01T11:21:42.043Z,9.60
2022-10-01T11:24:43.944Z,9.95
2022-10-01T11:27:26.615Z,8.50
2022-10-01T11:30:06.612Z,9.07
2022-10-01T11:32:42.191Z,8.23
2022-10-01T11:35:35.427Z,8.13
2022-10-01T11:38:49.124Z,8.48
2022-10-01T11:41:33.303Z,8.15
2022-10-01T11:44:09.213Z,8.65
2022-10-01T11:46:58.677Z,8.48
2022-10-01T11:49:48.942Z,7.85
2022-10-01T11:52:32.960Z,7.82
2022-10-01T11:55:36.051Z,8.65
2022-10-01T11:58:40.171Z,8.27
2022-10-01T12:01:16.803Z,8.38
2022-10-01T12:03:59.932Z,8.45
2022-10-01T12:06:37.010Z,8.38
2022-10-01T12:09:15.779Z,8.38
2022-10-01T12:11:53.001Z,6.57
2022-10-01T12:14:31.734Z,8.23
2022-10-01T12:17:10.494Z,7.78
2022-10-01T12:19:47.103Z,7.45
2022-10-01T12:22:26.007Z,7.60
2022-10-01T12:24:56.587Z,8.00
2022-10-01T12:27:37.299Z,7.90
2022-10-01T12:30:11.830Z,7.45
2022-10-01T12:32:59.179Z,7.32
2022-10-01T12:35:55.799Z,7.20
2022-10-01T12:38:40.640Z,7.13
2022-10-01T12:41:25.568Z,6.45
2022-10-01T12:44:18.429Z,7.63
2022-10-01T12:47:01.576Z,7.85
2022-10-01T12:49:41.862Z,6.93
2022-10-01T12:52:21.780Z,7.43
2022-10-01T12:55:15.539Z,6.53
2022-10-01T12:57:57.687Z,7.13
2022-10-01T13:00:31.509Z,7.47
2022-10-01T13:03:28.679Z,6.70
2022-10-01T13:06:16.528Z,7.30
2022-10-01T13:09:03.127Z,6.50
2022-10-01T13:11:49.219Z,7.07
2022-10-01T13:14:21.426Z,7.97
2022-10-01T13:17:00.968Z,7.10
2022-10-01T13:19:38.039Z,7.65
2022-10-01T13:22:17.973Z,8.25
2022-10-01T13:25:01.078Z,7.65
2022-10-01T13:27:38.978Z,8.15
2022-10-01T13:30:19.889Z,7.57
2022-10-01T13:32:54.618Z,8.50
2022-10-01T13:35:32.873Z,7.70
2022-10-01T13:38:17.701Z,7.57
2022-10-01T13:41:01.671Z,7.88
2022-10-01T13:43:34.008Z,6.80
2022-10-01T13:46:10.235Z,7.53
2022-10-01T13:48:49.294Z,7.40
2022-10-01T13:51:20.558Z,8.52
2022-10-01T13:53:56.901Z,8.18
2022-10-01T13:56:36.519Z,8.60
2022-10-01T13:59:23.419Z,8.68
2022-10-01T14:01:53.640Z,8.73
2022-10-01T14:04:28.338Z,9.17
2022-10-01T14:07:03.449Z,9.10
2022-10-01T14:09:39.218Z,8.48
2022-10-01T14:12:33.458Z,9.38
2022-10-01T14:15:33.430Z,9.15
2022-10-01T14:18:08.311Z,8.82
2022-10-01T14:20:50.562Z,9.95
2022-10-01T14:23:27.698Z,9.25
2022-10-01T14:26:04.967Z,8.55
2022-10-01T14:29:08.277Z,9.10
2022-10-01T14:31:51.041Z,10.63
2022-10-01T14:34:44.929Z,8.95
2022-10-01T14:37:19.130Z,8.80
2022-10-01T14:40:02.072Z,10.02
2022-10-01T14:42:32.698Z,9.70
2022-10-01T14:45:16.550Z,10.02
2022-10-01T14:47:49.127Z,9.98
2022-10-01T14:50:22.718Z,9.80
2022-10-01T14:52:55.297Z,9.75
2022-10-01T14:55:27.587Z,10.15
2022-10-01T14:58:00.845Z,9.60
2022-10-01T15:00:35.110Z,9.30
2022-10-01T15:03:13.563Z,10.02
2022-10-01T15:05:44.929Z,11.43
2022-10-01T15:08:22.784Z,10.82
2022-10-01T15:10:55.217Z,10.32
2022-10-01T15:13:29.339Z,11.77
2022-10-01T15:16:01.358Z,10.20
2022-10-01T15:18:37.748Z,10.93
2022-10-01T15:21:18.300Z,11.73
2022-10-01T15:23:50.719Z,10.65
2022-10-01T15:26:28.467Z,9.82
2022-10-01T15:29:06.379Z,10.00
2022-10-01T15:31:39.632Z,11.65
2022-10-01T15:34:14.808Z,9.73
2022-10-01T15:36:46.318Z,10.55
2022-10-01T15:39:35.698Z,10.02
2022-10-01T15:42:12.348Z,11.50
2022-10-01T15:44:48.427Z,9.85
2022-10-01T15:47:35.856Z,10.30
2022-10-01T15:50:19.617Z,10.45
2022-10-01T15:53:00.429Z,9.98
2022-10-01T15:55:44.397Z,10.55
2022-10-01T15:58:21.898Z,10.68
2022-10-01T16:01:03.601Z,11.65
2022-10-01T16:03:40.144Z,10.20
2022-10-01T16:06:21.807Z,11.43
2022-10-01T16:09:05.447Z,10.35
2022-10-01T16:11:54.277Z,11.02
2022-10-01T16:14:39.508Z,10.18
2022-10-01T16:17:30.579Z,11.93
2022-10-01T16:20:04.180Z,10.20
2022-10-01T16:22:40.147Z,10.98
2022-10-01T16:25:33.387Z,10.85
2022-10-01T16:28:07.077Z,10.90
2022-10-01T16:30:37.284Z,11.35
2022-10-01T16:33:07.929Z,10.27
2022-10-01T16:35:43.270Z,12.40
2022-10-01T16:38:14.067Z,12.30
2022-10-01T16:40:48.052Z,12.80
2022-10-01T16:43:21.898Z,12.93
2022-10-01T16:45:54.673Z,14.68
2022-10-01T16:48:25.278Z,14.52
2022-10-01T16:50:59.359Z,14.68
2022-10-01T16:53:30.849Z,15.45
2022-10-01T16:56:00.857Z,14.27
2022-10-01T16:58:31.180Z,13.32
2022-10-01T17:01:06.928Z,12.60
2022-10-01T17:03:38.134Z,12.88
2022-10-01T17:06:10.899Z,14.70
2022-10-01T17:08:41.220Z,14.35
2022-10-01T17:11:13.538Z,13.93
2022-10-01T17:13:43.924Z,14.93
2022-10-01T17:16:16.472Z,15.40
2022-10-01T17:18:50.107Z,16.77
2022-10-01T17:21:22.169Z,16.30
2022-10-01T17:23:55.778Z,16.75
2022-10-01T17:26:26.677Z,16.85
2022-10-01T17:28:56.968Z,15.38
2022-10-01T17:31:27.663Z,14.60
2022-10-01T17:33:58.593Z,15.93
2022-10-01T17:36:31.168Z,15.80
2022-10-01T17:39:01.609Z,15.75
2022-10-01T17:41:31.780Z,15.70
2022-10-01T17:44:02.289Z,15.50
2022-10-01T17:46:55.747Z,15.80
2022-10-01T17:57:42.345Z,14.68
2022-10-01T18:00:51.152Z,15.85
2022-10-01T18:04:40.439Z,16.55
2022-10-01T18:07:43.219Z,17.83
2022-10-01T18:10:42.197Z,17.77
2022-10-01T18:13:39.507Z,16.38
2022-10-01T18:16:37.357Z,14.68
2022-10-01T18:22:13.848Z,18.23
2022-10-01T18:24:45.985Z,15.85
2022-10-01T18:27:17.915Z,15.50
2022-10-01T18:29:47.845Z,17.58
2022-10-01T18:32:22.422Z,15.98
2022-10-01T18:34:56.337Z,18.35
2022-10-01T18:37:39.057Z,18.40
2022-10-01T18:40:14.187Z,17.30
2022-10-01T18:42:50.090Z,16.70
2022-10-01T18:45:27.171Z,14.38
2022-10-01T18:48:12.468Z,12.20
2022-10-01T18:50:52.597Z,10.70
2022-10-01T18:54:23.124Z,6.30
2022-10-01T18:57:03.868Z,4.82
2022-10-01T18:59:55.799Z,5.22
2022-10-01T19:02:57.471Z,4.63
2022-10-01T19:06:05.119Z,4.72
2022-10-01T19:08:54.639Z,4.82
2022-10-01T19:11:34.728Z,4.60
2022-10-01T19:14:23.959Z,5.70
2022-10-01T19:17:04.463Z,5.00
2022-10-01T19:19:48.122Z,4.30
2022-10-01T19:22:27.126Z,4.38
2022-10-01T19:25:10.777Z,4.95
2022-10-01T19:27:55.988Z,4.82
2022-10-01T19:30:26.031Z,4.25
2022-10-01T19:33:05.049Z,4.60
2022-10-01T19:35:41.832Z,4.28
2022-10-01T19:38:17.479Z,4.32
2022-10-01T19:40:56.133Z,4.13
2022-10-01T19:43:36.011Z,4.07
2022-10-01T19:46:16.596Z,4.45
2022-10-01T19:48:53.149Z,4.63
2022-10-01T19:51:26.318Z,4.80
2022-10-01T19:54:03.890Z,4.43
2022-10-01T19:56:38.592Z,4.70
2022-10-01T19:59:13.141Z,5.20
2022-10-01T20:01:52.661Z,4.20
2022-10-01T20:04:33.861Z,4.63
2022-10-01T20:07:13.306Z,5.43
2022-10-01T20:09:50.908Z,4.75
2022-10-01T20:12:28.597Z,4.60
2022-10-01T20:15:12.140Z,5.95
2022-10-01T20:17:57.552Z,4.63
2022-10-01T20:20:42.785Z,5.05
2022-10-01T20:23:39.191Z,5.50
2022-10-01T20:26:24.373Z,5.18
2022-10-01T20:29:32.627Z,5.45
2022-10-01T20:32:13.639Z,6.20
2022-10-01T20:34:54.770Z,6.03
2022-10-01T20:40:18.311Z,6.18
2022-10-01T20:42:51.929Z,6.22
2022-10-01T20:45:26.718Z,5.35
2022-10-01T20:48:00.792Z,6.25
2022-10-01T20:50:34.588Z,5.07
2022-10-01T20:53:22.324Z,5.63
2022-10-01T20:55:56.189Z,5.47
2022-10-01T20:58:30.773Z,5.82
2022-10-01T21:01:05.670Z,5.03
2022-10-01T21:03:40.900Z,5.10
2022-10-01T21:06:16.798Z,4.93
2022-10-01T21:08:55.058Z,4.78
2022-10-01T21:11:31.799Z,5.00
2022-10-01T21:14:12.229Z,4.88
2022-10-01T21:17:10.438Z,4.93
2022-10-01T21:20:20.600Z,4.90
2022-10-01T21:23:03.655Z,5.22
2022-10-01T21:25:45.891Z,6.35
2022-10-01T21:28:29.279Z,6.75
2022-10-01T21:31:12.602Z,5.35
2022-10-01T21:33:54.549Z,6.00
2022-10-01T21:36:34.335Z,5.82
2022-10-01T21:39:12.581Z,6.32
2022-10-01T21:41:57.149Z,6.00
2022-10-01T21:44:58.018Z,6.25
2022-10-01T21:47:43.390Z,5.57
2022-10-01T21:50:31.137Z,5.40
2022-10-01T21:53:29.245Z,4.97
2022-10-01T21:56:16.899Z,6.43
2022-10-01T21:59:20.348Z,6.22
2022-10-01T22:02:06.787Z,5.07
2022-10-01T22:04:46.349Z,5.43
2022-10-01T22:07:23.068Z,4.93
2022-10-01T22:10:09.661Z,4.90
2022-10-01T22:12:45.801Z,4.72
2022-10-01T22:15:25.687Z,5.70
2022-10-01T22:17:58.157Z,5.47
2022-10-01T22:20:32.561Z,5.50
2022-10-01T22:23:05.447Z,6.20
2022-10-01T22:25:38.420Z,5.55
2022-10-01T22:28:14.575Z,6.55
2022-10-01T22:30:48.497Z,6.13
2022-10-01T22:33:21.619Z,6.13
2022-10-01T22:35:55.799Z,6.95
2022-10-01T22:38:31.151Z,6.15
2022-10-01T22:41:07.847Z,5.40
2022-10-01T22:43:37.779Z,5.57
2022-10-01T22:46:35.801Z,5.72
2022-10-01T22:49:14.929Z,5.63
2022-10-01T22:51:58.442Z,5.38
2022-10-01T22:54:40.218Z,5.50
2022-10-01T22:57:25.457Z,5.57
2022-10-01T23:00:04.207Z,6.07
2022-10-01T23:02:41.168Z,5.60
2022-10-01T23:05:25.398Z,5.97
2022-10-01T23:08:05.770Z,5.32
2022-10-01T23:10:45.249Z,5.18
2022-10-01T23:13:24.799Z,6.25
2022-10-01T23:16:03.251Z,5.85
2022-10-01T23:18:41.967Z,6.10
2022-10-01T23:21:24.578Z,5.25
2022-10-01T23:24:08.909Z,4.32
2022-10-01T23:26:47.088Z,5.18
2022-10-01T23:29:48.630Z,4.68
2022-10-01T23:32:32.837Z,5.28
2022-10-01T23:35:14.279Z,4.90
2022-10-01T23:38:11.168Z,5.55
2022-10-01T23:40:45.158Z,5.35
2022-10-01T23:43:24.079Z,5.50
2022-10-01T23:46:00.767Z,5.32
2022-10-01T23:48:36.108Z,5.43
2022-10-01T23:51:14.560Z,5.22
2022-10-01T23:53:49.759Z,4.78
2022-10-01T23:56:42.228Z,4.70
2022-10-01T23:59:18.070Z,5.40
